createdAt,value
2018-05-26T00:00:10.344Z,62.40
2018-05-26T00:00:43.418Z,62.50
2018-05-26T00:01:15.990Z,62.40
2018-05-26T00:01:49.203Z,62.40
2018-05-26T00:02:21.800Z,62.50
2018-05-26T00:02:54.317Z,62.10
2018-05-26T00:03:26.847Z,62.70
2018-05-26T00:04:00.377Z,62.60
2018-05-26T00:04:34.300Z,62.60
2018-05-26T00:05:06.930Z,61.90
2018-05-26T00:05:39.477Z,62.50
2018-05-26T00:06:11.984Z,62.60
2018-05-26T00:06:44.629Z,62.70
2018-05-26T00:07:17.351Z,62.90
2018-05-26T00:07:52.118Z,63.10
2018-05-26T00:08:25.512Z,63.00
2018-05-26T00:08:58.052Z,62.40
2018-05-26T00:09:30.790Z,64.00
2018-05-26T00:10:03.536Z,63.30
2018-05-26T00:10:36.321Z,63.50
2018-05-26T00:11:09.525Z,63.60
2018-05-26T00:11:43.898Z,63.00
2018-05-26T00:12:16.602Z,63.80
2018-05-26T00:12:49.588Z,63.70
2018-05-26T00:13:22.112Z,63.80
2018-05-26T00:13:54.700Z,63.80
2018-05-26T00:14:28.057Z,63.20
2018-05-26T00:15:00.761Z,63.80
2018-05-26T00:15:33.287Z,63.80
2018-05-26T00:16:06.881Z,63.10
2018-05-26T00:16:40.374Z,63.20
2018-05-26T00:17:13.541Z,63.90
2018-05-26T00:17:46.343Z,63.50
2018-05-26T00:18:19.646Z,63.60
2018-05-26T00:18:52.354Z,63.60
2018-05-26T00:19:25.380Z,64.20
2018-05-26T00:19:57.878Z,64.20
2018-05-26T00:20:31.145Z,64.10
2018-05-26T00:21:03.902Z,63.60
2018-05-26T00:21:37.693Z,64.30
2018-05-26T00:22:10.322Z,64.20
2018-05-26T00:22:48.479Z,64.20
2018-05-26T00:23:21.179Z,64.40
2018-05-26T00:23:54.039Z,64.40
2018-05-26T00:24:26.554Z,64.00
2018-05-26T00:24:59.366Z,64.70
2018-05-26T00:25:32.914Z,64.70
2018-05-26T00:26:05.650Z,64.70
2018-05-26T00:26:38.165Z,64.70
2018-05-26T00:27:10.953Z,65.50
2018-05-26T00:27:43.715Z,64.70
2018-05-26T00:28:17.670Z,64.80
2018-05-26T00:28:50.192Z,64.60
2018-05-26T00:29:23.401Z,64.90
2018-05-26T00:29:55.932Z,64.30
2018-05-26T00:30:29.283Z,64.80
2018-05-26T00:31:02.716Z,65.00
2018-05-26T00:31:35.408Z,64.90
2018-05-26T00:32:08.033Z,65.00
2018-05-26T00:32:40.646Z,65.10
2018-05-26T00:33:13.173Z,65.10
2018-05-26T00:33:46.945Z,65.20
2018-05-26T00:34:20.649Z,65.20
2018-05-26T00:34:55.428Z,65.40
2018-05-26T00:35:28.033Z,65.20
2018-05-26T00:36:00.600Z,65.30
2018-05-26T00:36:34.081Z,65.10
2018-05-26T00:37:06.936Z,65.20
2018-05-26T00:37:39.644Z,65.30
2018-05-26T00:38:12.201Z,65.40
2018-05-26T00:38:44.857Z,65.50
2018-05-26T00:39:17.557Z,65.40
2018-05-26T00:39:50.379Z,65.30
2018-05-26T00:40:22.902Z,65.50
2018-05-26T00:40:56.063Z,65.30
2018-05-26T00:41:29.171Z,65.40
2018-05-26T00:42:01.968Z,65.50
2018-05-26T00:42:35.233Z,65.50
2018-05-26T00:43:09.118Z,65.60
2018-05-26T00:43:42.649Z,65.40
2018-05-26T00:44:15.189Z,65.40
2018-05-26T00:44:47.711Z,65.50
2018-05-26T00:45:20.344Z,65.30
2018-05-26T00:45:52.894Z,65.40
2018-05-26T00:46:26.374Z,65.40
2018-05-26T00:46:58.912Z,65.30
2018-05-26T00:47:32.341Z,65.30
2018-05-26T00:48:04.867Z,65.30
2018-05-26T00:48:39.484Z,65.40
2018-05-26T00:49:12.050Z,65.30
2018-05-26T00:49:44.756Z,65.20
2018-05-26T00:50:19.501Z,65.40
2018-05-26T00:50:52.122Z,65.40
2018-05-26T00:51:24.683Z,65.20
2018-05-26T00:51:57.297Z,65.20
2018-05-26T00:52:29.816Z,65.20
2018-05-26T00:53:02.528Z,65.40
2018-05-26T00:53:35.285Z,65.50
2018-05-26T00:54:08.197Z,65.50
2018-05-26T00:54:41.679Z,65.60
2018-05-26T00:55:15.245Z,65.50
2018-05-26T00:55:48.071Z,65.60
2018-05-26T00:56:20.678Z,65.70
2018-05-26T00:56:54.040Z,65.70
2018-05-26T00:57:27.686Z,65.80
2018-05-26T00:58:01.078Z,65.80
2018-05-26T00:58:33.659Z,65.80
2018-05-26T00:59:07.202Z,65.90
2018-05-26T00:59:40.829Z,66.00
2018-05-26T01:00:13.396Z,65.80
2018-05-26T01:00:46.039Z,65.80
2018-05-26T01:01:19.541Z,65.90
2018-05-26T01:01:52.154Z,66.10
2018-05-26T01:02:24.855Z,66.00
2018-05-26T01:02:58.530Z,66.10
2018-05-26T01:03:32.371Z,66.00
2018-05-26T01:04:04.885Z,66.10
2018-05-26T01:04:38.320Z,66.10
2018-05-26T01:05:10.834Z,66.10
2018-05-26T01:05:43.452Z,66.10
2018-05-26T01:06:16.016Z,66.10
2018-05-26T01:06:49.684Z,65.60
2018-05-26T01:07:22.249Z,66.20
2018-05-26T01:07:54.815Z,66.20
2018-05-26T01:08:27.504Z,66.10
2018-05-26T01:09:02.047Z,66.10
2018-05-26T01:09:34.660Z,66.00
2018-05-26T01:10:07.171Z,66.00
2018-05-26T01:10:40.420Z,66.10
2018-05-26T01:11:14.092Z,66.80
2018-05-26T01:11:46.820Z,66.00
2018-05-26T01:12:19.522Z,66.00
2018-05-26T01:12:52.923Z,66.10
2018-05-26T01:13:26.260Z,66.10
2018-05-26T01:13:58.775Z,66.10
2018-05-26T01:14:31.708Z,66.20
2018-05-26T01:15:04.477Z,66.20
2018-05-26T01:15:37.755Z,66.40
2018-05-26T01:16:11.036Z,66.30
2018-05-26T01:16:43.848Z,66.30
2018-05-26T01:17:17.088Z,66.30
2018-05-26T01:17:49.613Z,66.20
2018-05-26T01:18:22.213Z,66.20
2018-05-26T01:18:54.803Z,66.30
2018-05-26T01:19:27.347Z,66.40
2018-05-26T01:19:59.874Z,66.50
2018-05-26T01:20:32.431Z,66.60
2018-05-26T01:21:05.723Z,66.60
2018-05-26T01:21:38.955Z,66.60
2018-05-26T01:22:12.717Z,66.60
2018-05-26T01:22:46.304Z,66.70
2018-05-26T01:23:19.005Z,66.70
2018-05-26T01:23:52.802Z,66.70
2018-05-26T01:24:26.405Z,66.80
2018-05-26T01:24:59.123Z,66.80
2018-05-26T01:25:31.646Z,66.80
2018-05-26T01:26:05.169Z,66.80
2018-05-26T01:26:37.853Z,66.90
2018-05-26T01:27:10.381Z,67.00
2018-05-26T01:27:43.054Z,67.30
2018-05-26T01:28:15.567Z,67.40
2018-05-26T01:28:48.144Z,67.40
2018-05-26T01:29:20.892Z,67.40
2018-05-26T01:29:53.653Z,67.60
2018-05-26T01:30:26.179Z,67.60
2018-05-26T01:30:58.716Z,67.60
2018-05-26T01:31:31.632Z,67.60
2018-05-26T01:32:04.305Z,67.00
2018-05-26T01:45:32.642Z,67.60
2018-05-26T01:46:05.943Z,69.50
2018-05-26T01:46:38.608Z,69.40
2018-05-26T01:47:11.528Z,69.50
2018-05-26T01:47:44.241Z,69.50
2018-05-26T01:48:17.106Z,69.70
2018-05-26T01:48:49.695Z,70.00
2018-05-26T01:49:22.392Z,70.20
2018-05-26T01:49:55.790Z,70.30
2018-05-26T01:50:28.433Z,70.50
2018-05-26T01:51:01.047Z,70.50
2018-05-26T01:51:33.565Z,70.70
2018-05-26T01:52:06.178Z,70.80
2018-05-26T01:52:38.698Z,70.90
2018-05-26T01:53:12.060Z,71.00
2018-05-26T01:53:45.112Z,70.90
2018-05-26T01:54:18.493Z,71.00
2018-05-26T01:54:51.224Z,71.00
2018-05-26T01:55:23.763Z,71.10
2018-05-26T01:55:56.308Z,71.10
2018-05-26T01:56:28.996Z,71.20
2018-05-26T01:57:01.637Z,72.00
2018-05-26T01:57:34.232Z,71.30
2018-05-26T01:58:06.761Z,71.30
2018-05-26T01:58:39.903Z,71.20
2018-05-26T01:59:12.472Z,71.10
2018-05-26T01:59:45.055Z,71.30
2018-05-26T02:00:17.584Z,71.20
2018-05-26T02:00:50.267Z,71.20
2018-05-26T02:01:22.926Z,71.10
2018-05-26T02:01:55.560Z,71.10
2018-05-26T02:02:28.158Z,71.10
2018-05-26T02:03:00.696Z,71.00
2018-05-26T02:03:33.983Z,71.10
2018-05-26T02:04:07.565Z,70.50
2018-05-26T02:04:40.274Z,71.10
2018-05-26T02:05:13.387Z,71.10
2018-05-26T02:05:45.976Z,71.10
2018-05-26T02:06:18.662Z,71.00
2018-05-26T02:06:51.371Z,71.10
2018-05-26T02:07:24.428Z,71.10
2018-05-26T02:07:57.178Z,71.10
2018-05-26T02:08:29.718Z,71.10
2018-05-26T02:09:02.265Z,71.10
2018-05-26T02:09:34.807Z,71.10
2018-05-26T02:10:07.344Z,71.10
2018-05-26T02:10:39.886Z,71.10
2018-05-26T02:11:12.539Z,71.10
2018-05-26T02:11:45.049Z,71.10
2018-05-26T02:12:17.581Z,71.10
2018-05-26T02:12:50.162Z,71.10
2018-05-26T02:13:22.670Z,71.70
2018-05-26T02:13:55.247Z,70.90
2018-05-26T02:14:27.772Z,71.00
2018-05-26T02:15:01.097Z,71.10
2018-05-26T02:15:33.640Z,71.00
2018-05-26T02:16:06.156Z,71.10
2018-05-26T02:16:38.665Z,71.10
2018-05-26T02:17:11.250Z,71.10
2018-05-26T02:17:43.792Z,71.10
2018-05-26T02:18:16.327Z,71.10
2018-05-26T02:18:48.990Z,71.10
2018-05-26T02:19:21.649Z,71.90
2018-05-26T02:19:54.190Z,71.20
2018-05-26T02:20:26.705Z,71.20
2018-05-26T02:20:59.228Z,71.10
2018-05-26T02:21:31.750Z,71.20
2018-05-26T02:22:04.288Z,71.20
2018-05-26T02:22:37.593Z,71.40
2018-05-26T02:23:10.118Z,71.30
2018-05-26T02:23:42.659Z,71.30
2018-05-26T02:24:16.042Z,71.40
2018-05-26T02:24:48.715Z,71.40
2018-05-26T02:25:21.252Z,71.60
2018-05-26T02:25:53.776Z,71.70
2018-05-26T02:26:27.185Z,71.80
2018-05-26T02:26:59.698Z,71.70
2018-05-26T02:27:32.214Z,71.70
2018-05-26T02:28:04.788Z,71.80
2018-05-26T02:28:37.309Z,71.90
2018-05-26T02:29:09.861Z,71.90
2018-05-26T02:29:42.394Z,71.90
2018-05-26T02:30:14.919Z,71.90
2018-05-26T02:30:47.447Z,71.90
2018-05-26T02:31:19.944Z,71.90
2018-05-26T02:31:52.849Z,71.50
2018-05-26T02:32:25.381Z,72.00
2018-05-26T02:32:57.891Z,72.80
2018-05-26T02:33:30.410Z,72.20
2018-05-26T02:34:02.940Z,72.20
2018-05-26T02:34:35.497Z,72.20
2018-05-26T02:35:08.026Z,72.20
2018-05-26T02:35:40.591Z,72.50
2018-05-26T02:36:13.224Z,72.50
2018-05-26T02:36:45.820Z,72.50
2018-05-26T02:37:18.481Z,72.60
2018-05-26T02:37:51.012Z,72.60
2018-05-26T02:38:23.525Z,72.50
2018-05-26T02:38:56.075Z,72.60
2018-05-26T02:39:28.612Z,72.60
2018-05-26T02:40:01.204Z,72.50
2018-05-26T02:40:33.734Z,72.50
2018-05-26T02:41:06.428Z,72.60
2018-05-26T02:41:39.295Z,72.50
2018-05-26T02:42:11.826Z,72.60
2018-05-26T02:42:44.735Z,72.50
2018-05-26T02:43:17.301Z,72.50
2018-05-26T02:43:49.862Z,72.50
2018-05-26T02:44:22.365Z,72.50
2018-05-26T02:44:54.886Z,73.20
2018-05-26T02:45:27.413Z,72.50
2018-05-26T02:45:59.971Z,72.50
2018-05-26T02:46:32.550Z,72.50
2018-05-26T02:47:05.071Z,72.60
2018-05-26T02:47:37.727Z,72.70
2018-05-26T02:48:10.232Z,72.70
2018-05-26T02:48:42.739Z,72.60
2018-05-26T02:49:15.425Z,72.70
2018-05-26T02:49:47.972Z,72.70
2018-05-26T02:50:20.491Z,72.70
2018-05-26T02:50:53.067Z,72.70
2018-05-26T02:51:25.715Z,72.20
2018-05-26T02:51:58.256Z,72.80
2018-05-26T02:52:30.775Z,72.80
2018-05-26T02:53:03.279Z,72.90
2018-05-26T02:53:35.814Z,73.10
2018-05-26T02:54:08.461Z,73.30
2018-05-26T02:54:40.998Z,73.50
2018-05-26T02:55:13.533Z,73.60
2018-05-26T02:55:46.063Z,73.80
2018-05-26T02:56:18.660Z,74.00
2018-05-26T02:56:51.180Z,74.10
2018-05-26T02:57:23.748Z,74.20
2018-05-26T02:57:56.282Z,74.40
2018-05-26T02:58:29.595Z,74.50
2018-05-26T02:59:02.153Z,74.40
2018-05-26T02:59:34.721Z,74.40
2018-05-26T03:00:07.247Z,74.40
2018-05-26T03:00:39.786Z,74.40
2018-05-26T03:01:12.300Z,74.40
2018-05-26T03:01:44.982Z,74.50
2018-05-26T03:02:17.503Z,74.70
2018-05-26T03:02:50.051Z,75.20
2018-05-26T03:03:22.568Z,74.40
2018-05-26T03:03:54.651Z,74.40
2018-05-26T03:04:33.123Z,74.50
2018-05-26T03:05:11.268Z,74.40
2018-05-26T03:05:49.463Z,73.90
2018-05-26T03:06:27.659Z,74.50
2018-05-26T03:07:06.647Z,74.70
2018-05-26T03:07:44.715Z,74.70
2018-05-26T03:08:22.808Z,74.90
2018-05-26T03:09:00.922Z,74.90
2018-05-26T03:09:39.049Z,75.00
2018-05-26T03:10:17.326Z,75.00
2018-05-26T03:10:55.584Z,75.30
2018-05-26T03:11:33.636Z,75.50
2018-05-26T03:12:12.732Z,75.90
2018-05-26T03:12:50.822Z,75.80
2018-05-26T03:13:29.055Z,75.80
2018-05-26T03:14:07.240Z,76.00
2018-05-26T03:14:45.486Z,75.80
2018-05-26T03:15:17.589Z,76.00
2018-05-26T03:15:51.356Z,76.00
2018-05-26T03:16:28.759Z,76.00
2018-05-26T03:17:01.483Z,76.10
2018-05-26T03:17:48.912Z,76.10
2018-05-26T03:19:07.843Z,76.10
2018-05-26T03:19:40.429Z,76.10
2018-05-26T03:20:12.948Z,76.80
2018-05-26T03:20:46.233Z,76.10
2018-05-26T03:21:18.768Z,76.00
2018-05-26T03:21:51.278Z,76.00
2018-05-26T03:22:23.789Z,76.00
2018-05-26T03:22:56.340Z,75.90
2018-05-26T03:23:29.014Z,75.90
2018-05-26T03:24:01.535Z,76.00
2018-05-26T03:24:34.066Z,75.90
2018-05-26T03:25:07.349Z,76.30
2018-05-26T03:25:39.874Z,76.20
2018-05-26T03:26:12.524Z,76.20
2018-05-26T03:26:45.051Z,76.20
2018-05-26T03:27:17.579Z,76.80
2018-05-26T03:27:50.113Z,76.10
2018-05-26T03:28:22.695Z,76.10
2018-05-26T03:28:55.224Z,76.20
2018-05-26T03:29:27.767Z,76.40
2018-05-26T03:30:01.059Z,76.90
2018-05-26T03:30:33.735Z,76.70
2018-05-26T03:31:06.264Z,76.90
2018-05-26T03:31:38.769Z,77.00
2018-05-26T03:32:11.297Z,77.20
2018-05-26T03:32:43.995Z,77.70
2018-05-26T03:33:16.523Z,78.00
2018-05-26T03:33:49.054Z,78.20
2018-05-26T03:34:21.594Z,78.40
2018-05-26T03:34:54.131Z,78.60
2018-05-26T03:35:26.636Z,78.80
2018-05-26T03:35:59.160Z,78.90
2018-05-26T03:36:31.689Z,78.90
2018-05-26T03:37:04.196Z,78.90
2018-05-26T03:37:36.713Z,79.10
2018-05-26T03:38:09.245Z,78.80
2018-05-26T03:38:41.764Z,78.90
2018-05-26T03:39:14.322Z,79.50
2018-05-26T03:39:46.837Z,79.40
2018-05-26T03:40:19.375Z,79.20
2018-05-26T03:40:52.127Z,79.50
2018-05-26T03:41:24.832Z,79.60
2018-05-26T03:41:57.395Z,79.60
2018-05-26T03:42:29.944Z,79.70
2018-05-26T03:43:02.468Z,79.60
2018-05-26T03:43:34.989Z,79.60
2018-05-26T03:44:07.514Z,79.70
2018-05-26T03:44:40.077Z,79.60
2018-05-26T03:45:12.604Z,79.60
2018-05-26T03:45:45.132Z,79.60
2018-05-26T03:46:17.663Z,79.70
2018-05-26T03:46:50.181Z,79.70
2018-05-26T03:47:22.696Z,79.60
2018-05-26T03:47:55.227Z,79.60
2018-05-26T03:48:27.806Z,79.50
2018-05-26T03:49:01.104Z,79.70
2018-05-26T03:49:33.634Z,79.60
2018-05-26T03:50:06.977Z,79.60
2018-05-26T03:50:39.525Z,79.60
2018-05-26T03:51:12.046Z,78.90
2018-05-26T03:51:44.566Z,79.50
2018-05-26T03:52:17.219Z,79.40
2018-05-26T03:52:49.751Z,79.40
2018-05-26T03:53:22.973Z,79.20
2018-05-26T03:53:55.507Z,79.20
2018-05-26T03:54:40.011Z,79.20
2018-05-26T03:55:33.328Z,79.20
2018-05-26T03:56:17.649Z,79.20
2018-05-26T03:57:01.874Z,79.30
2018-05-26T03:57:46.219Z,79.30
2018-05-26T03:58:30.421Z,79.40
2018-05-26T03:59:15.621Z,79.40
2018-05-26T04:00:11.866Z,79.40
2018-05-26T04:00:44.441Z,79.50
2018-05-26T04:01:16.956Z,79.40
2018-05-26T04:01:49.533Z,80.10
2018-05-26T04:02:22.058Z,79.40
2018-05-26T04:02:54.786Z,79.50
2018-05-26T04:03:27.376Z,79.50
2018-05-26T04:03:59.877Z,79.00
2018-05-26T04:04:33.169Z,79.50
2018-05-26T04:05:05.691Z,79.40
2018-05-26T04:05:38.213Z,79.40
2018-05-26T04:06:10.848Z,79.50
2018-05-26T04:06:43.370Z,79.40
2018-05-26T04:07:15.889Z,79.40
2018-05-26T04:07:48.427Z,80.20
2018-05-26T04:08:20.951Z,79.50
2018-05-26T04:08:53.459Z,79.50
2018-05-26T04:09:25.977Z,79.40
2018-05-26T04:09:58.543Z,79.40
2018-05-26T04:10:31.043Z,79.40
2018-05-26T04:11:03.570Z,79.40
2018-05-26T04:11:36.109Z,79.40
2018-05-26T04:12:08.720Z,79.50
2018-05-26T04:12:41.267Z,79.50
2018-05-26T04:13:13.801Z,79.30
2018-05-26T04:13:46.337Z,79.20
2018-05-26T04:14:18.867Z,79.40
2018-05-26T04:14:51.393Z,79.40
2018-05-26T04:15:23.924Z,79.40
2018-05-26T04:15:56.493Z,79.30
2018-05-26T04:16:29.020Z,79.30
2018-05-26T04:17:01.855Z,79.20
2018-05-26T04:17:34.489Z,79.40
2018-05-26T04:18:07.091Z,79.30
2018-05-26T04:18:39.883Z,79.30
2018-05-26T04:19:12.396Z,79.30
2018-05-26T04:19:44.909Z,79.20
2018-05-26T04:20:17.476Z,79.00
2018-05-26T04:20:50.032Z,79.00
2018-05-26T04:21:22.631Z,79.00
2018-05-26T04:21:55.158Z,78.20
2018-05-26T04:22:27.676Z,78.70
2018-05-26T04:23:00.966Z,78.60
2018-05-26T04:23:33.496Z,78.50
2018-05-26T04:24:06.026Z,78.50
2018-05-26T04:24:38.788Z,78.50
2018-05-26T04:25:11.343Z,79.00
2018-05-26T04:25:43.903Z,79.10
2018-05-26T04:26:16.430Z,79.00
2018-05-26T04:26:48.977Z,78.90
2018-05-26T04:27:21.505Z,78.80
2018-05-26T04:27:54.036Z,78.70
2018-05-26T04:28:26.609Z,78.70
2018-05-26T04:28:59.132Z,78.70
2018-05-26T04:29:31.656Z,78.70
2018-05-26T04:30:04.197Z,78.60
2018-05-26T04:30:36.724Z,78.60
2018-05-26T04:31:09.247Z,78.60
2018-05-26T04:31:41.773Z,78.60
2018-05-26T04:32:14.324Z,78.80
2018-05-26T04:32:46.839Z,78.30
2018-05-26T04:33:19.361Z,78.80
2018-05-26T04:33:51.892Z,78.70
2018-05-26T04:34:24.425Z,78.60
2018-05-26T04:34:57.022Z,78.80
2018-05-26T04:35:29.597Z,78.40
2018-05-26T04:36:02.152Z,78.50
2018-05-26T04:36:34.681Z,78.60
2018-05-26T04:37:07.237Z,78.80
2018-05-26T04:37:39.788Z,78.90
2018-05-26T04:38:12.309Z,78.80
2018-05-26T04:38:44.891Z,78.70
2018-05-26T04:39:17.429Z,78.60
2018-05-26T04:39:49.945Z,78.60
2018-05-26T04:40:22.462Z,78.50
2018-05-26T04:40:55.016Z,78.30
2018-05-26T04:41:27.609Z,78.30
2018-05-26T04:42:00.318Z,78.50
2018-05-26T04:42:32.838Z,78.60
2018-05-26T04:43:06.114Z,79.00
2018-05-26T04:43:38.656Z,78.60
2018-05-26T04:44:11.185Z,78.50
2018-05-26T04:44:43.787Z,78.70
2018-05-26T04:45:16.427Z,78.40
2018-05-26T04:45:48.940Z,78.40
2018-05-26T04:46:21.451Z,78.50
2018-05-26T04:46:53.963Z,78.60
2018-05-26T04:47:26.492Z,78.70
2018-05-26T04:47:59.024Z,78.30
2018-05-26T04:48:31.551Z,78.80
2018-05-26T04:49:04.077Z,78.80
2018-05-26T04:49:37.524Z,78.80
2018-05-26T04:50:10.116Z,78.60
2018-05-26T04:50:42.645Z,78.80
2018-05-26T04:51:15.225Z,78.70
2018-05-26T04:51:47.752Z,78.60
2018-05-26T04:52:20.417Z,78.30
2018-05-26T04:52:53.112Z,78.30
2018-05-26T04:53:25.668Z,78.60
2018-05-26T04:53:58.954Z,79.00
2018-05-26T04:54:31.514Z,78.90
2018-05-26T04:55:04.053Z,78.80
2018-05-26T04:55:37.562Z,78.90
2018-05-26T04:56:10.073Z,78.80
2018-05-26T04:56:42.608Z,78.80
2018-05-26T04:57:15.148Z,78.30
2018-05-26T04:57:47.777Z,77.90
2018-05-26T04:58:20.509Z,76.90
2018-05-26T04:58:53.023Z,77.40
2018-05-26T04:59:26.405Z,77.30
2018-05-26T04:59:58.948Z,77.40
2018-05-26T05:00:31.517Z,77.40
2018-05-26T05:01:04.060Z,77.60
2018-05-26T05:01:36.583Z,77.30
2018-05-26T05:02:09.892Z,77.90
2018-05-26T05:02:42.436Z,77.70
2018-05-26T05:03:15.074Z,77.90
2018-05-26T05:03:47.996Z,77.90
2018-05-26T05:04:20.518Z,78.00
2018-05-26T05:04:53.036Z,78.10
2018-05-26T05:05:25.572Z,78.00
2018-05-26T05:05:58.126Z,78.20
2018-05-26T05:06:30.726Z,78.20
2018-05-26T05:07:03.236Z,78.20
2018-05-26T05:07:35.741Z,78.00
2018-05-26T05:08:08.393Z,77.70
2018-05-26T05:08:41.026Z,77.90
2018-05-26T05:09:13.567Z,77.90
2018-05-26T05:09:46.137Z,77.80
2018-05-26T05:10:18.672Z,77.90
2018-05-26T05:10:51.202Z,78.00
2018-05-26T05:11:23.742Z,77.40
2018-05-26T05:11:56.247Z,78.00
2018-05-26T05:12:28.820Z,78.00
2018-05-26T05:13:01.370Z,78.00
2018-05-26T05:13:34.064Z,77.90
2018-05-26T05:14:06.738Z,78.00
2018-05-26T05:14:39.265Z,78.70
2018-05-26T05:15:12.075Z,77.90
2018-05-26T05:15:44.623Z,77.70
2018-05-26T05:16:17.228Z,77.70
2018-05-26T05:16:50.531Z,77.70
2018-05-26T05:17:23.811Z,77.40
2018-05-26T05:17:56.355Z,76.70
2018-05-26T05:18:28.877Z,77.10
2018-05-26T05:19:01.413Z,77.00
2018-05-26T05:19:33.940Z,77.00
2018-05-26T05:20:06.465Z,77.10
2018-05-26T05:20:39.154Z,76.80
2018-05-26T05:21:11.852Z,76.60
2018-05-26T05:21:44.384Z,76.70
2018-05-26T05:22:17.115Z,76.70
2018-05-26T05:22:49.651Z,76.60
2018-05-26T05:23:22.938Z,76.30
2018-05-26T05:23:55.523Z,76.30
2018-05-26T05:24:28.033Z,76.30
2018-05-26T05:25:00.564Z,76.40
2018-05-26T05:25:33.105Z,76.10
2018-05-26T05:26:05.622Z,76.10
2018-05-26T05:26:38.147Z,76.10
2018-05-26T05:27:10.697Z,76.30
2018-05-26T05:27:43.434Z,76.70
2018-05-26T05:28:16.048Z,75.70
2018-05-26T05:28:48.618Z,75.80
2018-05-26T05:29:21.164Z,75.60
2018-05-26T05:29:53.835Z,75.70
2018-05-26T05:30:26.694Z,75.90
2018-05-26T05:30:59.271Z,76.20
2018-05-26T05:31:31.802Z,76.30
2018-05-26T05:32:04.353Z,76.30
2018-05-26T05:32:36.943Z,76.50
2018-05-26T05:33:09.836Z,76.40
2018-05-26T05:33:42.379Z,76.20
2018-05-26T05:34:14.932Z,76.20
2018-05-26T05:34:47.488Z,76.40
2018-05-26T05:35:20.015Z,76.00
2018-05-26T05:35:52.549Z,76.20
2018-05-26T05:36:25.113Z,76.30
2018-05-26T05:36:57.698Z,76.50
2018-05-26T05:37:30.263Z,76.50
2018-05-26T05:38:02.805Z,76.40
2018-05-26T05:38:35.372Z,76.50
2018-05-26T05:39:07.908Z,76.50
2018-05-26T05:39:40.427Z,76.20
2018-05-26T05:40:12.937Z,76.10
2018-05-26T05:40:46.229Z,76.10
2018-05-26T05:41:18.774Z,76.00
2018-05-26T05:41:51.296Z,75.90
2018-05-26T05:42:23.832Z,75.90
2018-05-26T05:42:56.326Z,75.60
2018-05-26T05:43:28.847Z,75.30
2018-05-26T05:44:01.595Z,75.30
2018-05-26T05:44:34.198Z,75.50
2018-05-26T05:45:06.715Z,75.10
2018-05-26T05:45:39.247Z,74.80
2018-05-26T05:46:11.770Z,74.70
2018-05-26T05:46:44.299Z,74.70
2018-05-26T05:47:17.295Z,74.40
2018-05-26T05:47:49.818Z,74.40
2018-05-26T05:48:22.339Z,74.50
2018-05-26T05:48:54.876Z,73.50
2018-05-26T05:49:28.181Z,74.10
2018-05-26T05:50:00.704Z,74.10
2018-05-26T05:50:33.294Z,73.80
2018-05-26T05:51:05.984Z,74.00
2018-05-26T05:51:38.548Z,73.70
2018-05-26T05:52:11.075Z,73.60
2018-05-26T05:52:43.624Z,73.20
2018-05-26T05:53:17.001Z,73.60
2018-05-26T05:53:49.539Z,73.70
2018-05-26T05:54:22.072Z,73.90
2018-05-26T05:54:54.596Z,73.80
2018-05-26T05:55:27.133Z,73.80
2018-05-26T05:55:59.649Z,73.60
2018-05-26T05:56:32.252Z,73.70
2018-05-26T05:57:04.788Z,73.20
2018-05-26T05:57:37.326Z,73.00
2018-05-26T05:58:10.242Z,73.10
2018-05-26T05:58:42.862Z,73.00
2018-05-26T05:59:15.386Z,72.80
2018-05-26T05:59:47.935Z,72.00
2018-05-26T06:00:20.653Z,72.60
2018-05-26T06:00:53.216Z,72.60
2018-05-26T06:01:26.857Z,72.60
2018-05-26T06:01:59.421Z,72.70
2018-05-26T06:02:32.117Z,72.50
2018-05-26T06:03:04.645Z,72.00
2018-05-26T06:03:37.273Z,71.80
2018-05-26T06:04:09.886Z,71.50
2018-05-26T06:04:42.417Z,70.80
2018-05-26T06:05:14.964Z,70.20
2018-05-26T06:05:47.503Z,70.20
2018-05-26T06:06:20.040Z,70.50
2018-05-26T06:06:52.564Z,70.30
2018-05-26T06:07:25.844Z,70.50
2018-05-26T06:07:59.061Z,70.40
2018-05-26T06:08:32.360Z,70.60
2018-05-26T06:09:05.829Z,71.20
2018-05-26T06:09:38.375Z,71.10
2018-05-26T06:10:10.908Z,71.30
2018-05-26T06:10:43.491Z,71.40
2018-05-26T06:11:16.020Z,71.10
2018-05-26T06:11:49.457Z,71.30
2018-05-26T06:12:22.397Z,71.30
2018-05-26T06:12:55.076Z,71.40
2018-05-26T06:13:28.789Z,71.50
2018-05-26T06:14:01.311Z,71.40
2018-05-26T06:14:34.377Z,71.30
2018-05-26T06:15:07.085Z,71.30
2018-05-26T06:15:40.436Z,71.40
2018-05-26T06:16:13.035Z,71.50
2018-05-26T06:16:45.573Z,71.20
2018-05-26T06:17:18.205Z,71.20
2018-05-26T06:17:50.754Z,70.90
2018-05-26T06:18:23.268Z,70.80
2018-05-26T06:18:55.789Z,70.80
2018-05-26T06:19:28.942Z,71.10
2018-05-26T06:20:01.675Z,71.20
2018-05-26T06:20:34.223Z,71.10
2018-05-26T06:21:06.752Z,70.50
2018-05-26T06:21:39.313Z,70.50
2018-05-26T06:22:11.865Z,70.80
2018-05-26T06:22:44.411Z,70.80
2018-05-26T06:23:16.939Z,70.00
2018-05-26T06:23:49.476Z,69.70
2018-05-26T06:24:22.065Z,69.00
2018-05-26T06:24:54.715Z,69.60
2018-05-26T06:25:27.888Z,69.60
2018-05-26T06:26:01.035Z,69.80
2018-05-26T06:26:33.558Z,69.40
2018-05-26T06:27:06.849Z,69.40
2018-05-26T06:27:39.398Z,69.30
2018-05-26T06:28:11.965Z,69.30
2018-05-26T06:28:44.491Z,68.50
2018-05-26T06:29:17.027Z,69.00
2018-05-26T06:29:49.553Z,68.50
2018-05-26T06:30:22.445Z,68.10
2018-05-26T06:30:55.086Z,67.70
2018-05-26T06:31:27.917Z,67.20
2018-05-26T06:32:00.453Z,67.30
2018-05-26T06:32:33.199Z,67.60
2018-05-26T06:33:05.759Z,67.70
2018-05-26T06:33:39.352Z,67.80
2018-05-26T06:34:12.061Z,67.90
2018-05-26T06:34:44.594Z,67.90
2018-05-26T06:35:17.324Z,67.50
2018-05-26T06:35:49.857Z,66.80
2018-05-26T06:36:23.648Z,66.40
2018-05-26T06:36:56.246Z,66.50
2018-05-26T06:37:29.462Z,66.40
2018-05-26T06:38:02.276Z,66.60
2018-05-26T06:38:35.165Z,66.50
2018-05-26T06:39:07.713Z,66.10
2018-05-26T06:39:40.811Z,66.80
2018-05-26T06:40:13.386Z,66.80
2018-05-26T06:40:46.173Z,66.90
2018-05-26T06:41:18.749Z,67.00
2018-05-26T06:41:52.385Z,66.80
2018-05-26T06:42:24.897Z,66.80
2018-05-26T06:42:59.352Z,66.20
2018-05-26T06:43:31.868Z,66.90
2018-05-26T06:44:05.203Z,66.10
2018-05-26T06:44:37.712Z,66.10
2018-05-26T06:45:10.241Z,66.20
2018-05-26T06:45:42.748Z,66.40
2018-05-26T06:46:16.039Z,66.10
2018-05-26T06:46:48.721Z,66.20
2018-05-26T06:47:21.477Z,66.30
2018-05-26T06:47:54.013Z,66.00
2018-05-26T06:48:26.719Z,66.10
2018-05-26T06:48:59.241Z,66.10
2018-05-26T06:49:32.156Z,65.80
2018-05-26T06:50:04.677Z,65.40
2018-05-26T06:50:37.194Z,65.20
2018-05-26T06:51:09.710Z,65.30
2018-05-26T06:51:42.311Z,65.30
2018-05-26T06:52:14.850Z,65.00
2018-05-26T06:52:47.466Z,64.80
2018-05-26T06:53:19.998Z,64.80
2018-05-26T06:53:52.552Z,64.90
2018-05-26T06:54:25.098Z,65.10
2018-05-26T06:54:57.653Z,65.10
2018-05-26T06:55:30.188Z,64.70
2018-05-26T06:56:02.779Z,64.60
2018-05-26T06:56:35.484Z,64.60
2018-05-26T06:57:08.201Z,64.00
2018-05-26T06:57:40.747Z,64.10
2018-05-26T06:58:13.290Z,64.10
2018-05-26T06:58:46.353Z,64.20
2018-05-26T06:59:18.900Z,63.70
2018-05-26T06:59:51.483Z,63.60
2018-05-26T07:00:24.070Z,63.00
2018-05-26T07:00:56.608Z,63.40
2018-05-26T07:01:29.155Z,63.10
2018-05-26T07:02:01.681Z,63.00
2018-05-26T07:02:34.246Z,62.90
2018-05-26T07:03:06.788Z,62.60
2018-05-26T07:03:39.329Z,62.50
2018-05-26T07:04:11.866Z,62.40
2018-05-26T07:04:45.337Z,62.40
2018-05-26T07:05:19.272Z,62.40
2018-05-26T07:05:51.835Z,61.40
2018-05-26T07:06:25.466Z,60.70
2018-05-26T07:06:57.988Z,60.30
2018-05-26T07:07:30.575Z,60.20
2018-05-26T07:08:03.106Z,60.50
2018-05-26T07:08:35.735Z,60.40
2018-05-26T07:09:08.288Z,59.70
2018-05-26T07:09:40.803Z,59.90
2018-05-26T07:10:13.789Z,59.90
2018-05-26T07:10:46.296Z,59.80
2018-05-26T07:11:19.010Z,59.80
2018-05-26T07:11:51.568Z,60.00
2018-05-26T07:12:24.098Z,59.80
2018-05-26T07:12:56.606Z,60.00
2018-05-26T07:13:29.921Z,60.00
2018-05-26T07:14:02.505Z,59.80
2018-05-26T07:14:35.042Z,59.40
2018-05-26T07:15:07.628Z,59.10
2018-05-26T07:15:40.171Z,58.60
2018-05-26T07:16:12.726Z,58.60
2018-05-26T07:16:45.493Z,57.70
2018-05-26T07:17:18.036Z,57.20
2018-05-26T07:38:53.273Z,52.30
2018-05-26T07:39:25.843Z,52.70
2018-05-26T07:39:58.367Z,52.80